首页
METAR-TAF:

METAR-TAF

机场 :

Bisbee Douglas International Airport

道格拉斯 / 比斯比, 亞利桑那州, 美国

纬度: 31-28-09N, 经度: 109-36-13W, 海拔: 1266米

当前天气观测

该预报发布于17分钟前的14:56 UTC
静风
温度 2°C
湿度 87%
气压 1021 hPa
能見度: 16.1公里
天空无云

METAR: KDUG 131456Z AUTO 00000KT 10SM CLR 02/00 A3015 RMK AO2 SLP196 T00220000 53006

时间: 08:13 (15:13 UTC)

预报

该预报发布于3小时和37分钟前的11:36 UTC
预报有效从13日的 12点(UTC)到 14日的 12点(UTC)
风速4节,风向多变
能見度: 10公里
天空无云
从 13日的 2000点(UTC)
风速8节,风向西
能見度: 10公里
散云层高于25000英尺
从 14日的 0300点(UTC)
风速7节,风向
能見度: 10公里
多云层高于25000英尺

TAF: KDUG 131136Z 1312/1412 VRB04KT P6SM SKC FM132000 27008KT P6SM SCT250 FM140300 35007KT P6SM BKN250

超过4000个机场的气象观测和天气预报(METAR&TAF报告)。

可查询的气象台以黄色和红色小点在地图上表示。

将鼠标移到小点上方,可查看气象台名称。

然后点击查看天气观测和预报。

如需切换地图:点击带黑十字的绿色按钮放大地图;点击带横线的绿色按钮缩小地图;或者点击绿色箭头查看邻近地区的地图。


METAR-TAF: